Time;durP1;ratioP1;P1;durP2;ratioP2;P2;SDS_P1;SDS_P2;PMS_P1;PMS_P2;Temp;Humidity;BMP_temperature;BMP_pressure;BME280_temperature;BME280_humidity;BME280_pressure;Samples;Min_cycle;Max_cycle;Signal;HPM_P1;HPM_P2
2023/03/23 00:00:13;;;;;;;11.15;8.15;;;;;;;;;;5000117;28;20052;-78
2023/03/23 00:02:39;;;;;;;11.38;7.85;;;;;;;;;;4999011;28;20054;-78
2023/03/23 00:05:07;;;;;;;14.55;8.13;;;;;;;;;;5001061;28;20038;-78
2023/03/23 00:07:33;;;;;;;13.40;7.80;;;;;;;;;;4999916;28;20046;-78
2023/03/23 00:10:02;;;;;;;12.38;8.15;;;;;;;;;;5000076;28;20073;-77
2023/03/23 00:12:32;;;;;;;14.07;8.48;;;;;;;;;;5006489;28;20046;-78
2023/03/23 00:15:00;;;;;;;15.25;8.45;;;;;;;;;;5008926;28;20054;-77
2023/03/23 00:17:26;;;;;;;13.88;8.02;;;;;;;;;;5006642;28;20042;-77
2023/03/23 00:19:52;;;;;;;14.45;7.80;;;;;;;;;;4999227;28;20469;-77
2023/03/23 00:22:20;;;;;;;14.68;7.80;;;;;;;;;;5001133;28;20042;-78
2023/03/23 00:24:47;;;;;;;11.05;7.88;;;;;;;;;;5000986;28;20058;-79
2023/03/23 00:27:14;;;;;;;13.45;7.97;;;;;;;;;;5001480;28;20042;-77
2023/03/23 00:29:41;;;;;;;12.45;7.40;;;;;;;;;;5001712;28;20125;-78
2023/03/23 00:32:12;;;;;;;13.50;8.00;;;;;;;;;;5000280;28;20400;-78
2023/03/23 00:34:40;;;;;;;14.02;8.82;;;;;;;;;;5000791;28;20054;-78
2023/03/23 00:37:07;;;;;;;10.93;7.55;;;;;;;;;;5000058;28;20053;-77
2023/03/23 00:39:33;;;;;;;13.27;7.72;;;;;;;;;;5000259;28;20499;-78
2023/03/23 00:42:02;;;;;;;12.20;7.82;;;;;;;;;;4999700;28;20100;-78
2023/03/23 00:44:30;;;;;;;13.88;7.28;;;;;;;;;;4999389;28;20046;-77
2023/03/23 00:46:56;;;;;;;14.10;7.60;;;;;;;;;;4998866;28;20038;-78
2023/03/23 00:49:24;;;;;;;11.70;7.53;;;;;;;;;;4999509;28;20088;-78
2023/03/23 00:51:51;;;;;;;12.45;7.45;;;;;;;;;;5001050;28;20069;-78
2023/03/23 00:54:17;;;;;;;13.93;7.55;;;;;;;;;;5000803;28;20042;-79
2023/03/23 00:56:43;;;;;;;11.25;7.03;;;;;;;;;;5001471;28;20081;-78
2023/03/23 00:59:09;;;;;;;11.30;7.32;;;;;;;;;;5003096;28;20042;-78
2023/03/23 01:01:35;;;;;;;15.52;7.45;;;;;;;;;;5003428;28;20125;-78
2023/03/23 01:04:03;;;;;;;11.93;7.30;;;;;;;;;;5000751;28;20081;-78
2023/03/23 01:06:30;;;;;;;13.75;7.75;;;;;;;;;;4983698;28;20042;-78
2023/03/23 01:08:57;;;;;;;13.18;7.50;;;;;;;;;;5001546;28;20066;-78
2023/03/23 01:11:24;;;;;;;13.13;7.40;;;;;;;;;;5001637;28;20058;-78
2023/03/23 01:13:50;;;;;;;13.32;6.97;;;;;;;;;;4999210;28;20065;-77
2023/03/23 01:16:16;;;;;;;11.48;7.00;;;;;;;;;;5001458;28;20144;-78
2023/03/23 01:18:42;;;;;;;11.65;6.20;;;;;;;;;;5004283;28;20054;-77
2023/03/23 01:21:10;;;;;;;12.25;6.20;;;;;;;;;;5005698;28;20045;-77
2023/03/23 01:23:37;;;;;;;11.25;5.70;;;;;;;;;;5000523;28;20104;-77
2023/03/23 01:26:14;;;;;;;10.55;5.20;;;;;;;;;;4998902;28;20060;-78
2023/03/23 01:28:40;;;;;;;7.90;4.90;;;;;;;;;;4999397;28;20046;-78
2023/03/23 01:31:07;;;;;;;10.18;4.78;;;;;;;;;;5001108;28;20046;-78
2023/03/23 01:33:34;;;;;;;9.40;4.60;;;;;;;;;;4997104;28;20067;-77
2023/03/23 01:36:04;;;;;;;8.52;4.22;;;;;;;;;;4997609;28;20042;-78
2023/03/23 01:38:30;;;;;;;9.00;3.75;;;;;;;;;;5000545;28;20390;-78
2023/03/23 01:40:57;;;;;;;9.13;3.83;;;;;;;;;;5000038;28;20112;-76
2023/03/23 01:43:23;;;;;;;8.18;3.85;;;;;;;;;;4998584;28;20058;-77
2023/03/23 01:45:49;;;;;;;8.15;3.47;;;;;;;;;;5000876;28;20042;-78
2023/03/23 01:48:18;;;;;;;8.70;4.10;;;;;;;;;;5001812;28;20047;-78
2023/03/23 01:50:51;;;;;;;8.15;4.10;;;;;;;;;;5001331;28;20124;-79
2023/03/23 01:53:17;;;;;;;9.25;4.55;;;;;;;;;;5002778;28;20493;-77
2023/03/23 01:55:48;;;;;;;11.20;4.85;;;;;;;;;;5001996;28;20399;-78
2023/03/23 01:58:15;;;;;;;8.85;4.70;;;;;;;;;;5001054;28;20050;-77
2023/03/23 02:00:42;;;;;;;10.85;4.78;;;;;;;;;;5002525;28;20080;-77
2023/03/23 02:03:10;;;;;;;9.02;4.97;;;;;;;;;;5001122;28;20050;-78
2023/03/23 02:05:40;;;;;;;9.25;4.95;;;;;;;;;;5003011;28;20069;-79
2023/03/23 02:08:08;;;;;;;12.30;4.78;;;;;;;;;;5000391;28;20081;-78
2023/03/23 02:10:35;;;;;;;10.90;4.93;;;;;;;;;;4998848;28;20097;-77
2023/03/23 02:13:02;;;;;;;8.75;4.80;;;;;;;;;;4999007;28;20054;-78
2023/03/23 02:15:30;;;;;;;9.38;4.85;;;;;;;;;;5001201;28;20042;-79
2023/03/23 02:18:04;;;;;;;10.70;4.70;;;;;;;;;;5000425;28;20046;-77
2023/03/23 02:20:37;;;;;;;10.70;4.93;;;;;;;;;;4982572;28;20050;-78
2023/03/23 02:23:24;;;;;;;9.15;5.07;;;;;;;;;;4983114;28;20401;-78
2023/03/23 02:25:50;;;;;;;12.02;4.80;;;;;;;;;;4999366;28;20046;-78
2023/03/23 02:28:26;;;;;;;8.75;4.28;;;;;;;;;;5003309;28;20065;-78
2023/03/23 02:31:01;;;;;;;8.75;4.50;;;;;;;;;;5001382;28;20050;-77
2023/03/23 02:33:30;;;;;;;10.63;4.75;;;;;;;;;;5000532;28;20078;-77
2023/03/23 02:36:05;;;;;;;9.65;4.57;;;;;;;;;;4997842;28;20121;-77
2023/03/23 02:38:35;;;;;;;10.07;4.68;;;;;;;;;;5003152;28;20480;-78
2023/03/23 02:41:02;;;;;;;10.32;4.78;;;;;;;;;;5001203;28;20381;-78
2023/03/23 02:43:29;;;;;;;10.13;4.53;;;;;;;;;;5001620;28;20045;-78
2023/03/23 02:45:56;;;;;;;8.98;4.30;;;;;;;;;;5000722;28;20129;-78
2023/03/23 02:48:24;;;;;;;10.52;4.45;;;;;;;;;;5000525;28;20043;-79
2023/03/23 02:50:52;;;;;;;9.13;4.55;;;;;;;;;;5001198;28;20101;-79
2023/03/23 02:53:21;;;;;;;8.40;4.05;;;;;;;;;;5000372;28;20077;-78
2023/03/23 02:55:48;;;;;;;10.75;4.45;;;;;;;;;;5000774;28;20050;-78
2023/03/23 02:58:14;;;;;;;10.30;4.90;;;;;;;;;;5000987;28;20046;-78
2023/03/23 03:00:41;;;;;;;10.70;4.78;;;;;;;;;;5001023;28;20077;-78
2023/03/23 03:03:11;;;;;;;7.40;4.40;;;;;;;;;;5000336;28;20062;-78
2023/03/23 03:05:41;;;;;;;9.82;4.68;;;;;;;;;;4999846;28;20129;-78
2023/03/23 03:08:13;;;;;;;8.63;4.65;;;;;;;;;;5000726;28;20050;-78
2023/03/23 03:10:45;;;;;;;7.80;4.28;;;;;;;;;;5004031;28;20104;-78
2023/03/23 03:13:32;;;;;;;9.93;4.78;;;;;;;;;;5000475;28;20085;-78
2023/03/23 03:16:06;;;;;;;8.90;4.72;;;;;;;;;;5001578;28;20047;-79
2023/03/23 03:18:34;;;;;;;8.23;4.40;;;;;;;;;;5001050;28;20035;-78
2023/03/23 03:21:03;;;;;;;8.63;4.90;;;;;;;;;;4999810;28;20449;-78
2023/03/23 03:23:29;;;;;;;8.70;4.53;;;;;;;;;;4998625;28;20046;-77
2023/03/23 03:25:57;;;;;;;9.65;4.68;;;;;;;;;;4998878;28;20050;-78
2023/03/23 03:28:24;;;;;;;10.50;4.95;;;;;;;;;;4998551;28;20046;-78
2023/03/23 03:31:01;;;;;;;7.53;4.53;;;;;;;;;;4982112;28;20397;-78
2023/03/23 03:33:30;;;;;;;10.43;4.88;;;;;;;;;;4982269;28;20108;-78
2023/03/23 03:35:57;;;;;;;9.70;4.65;;;;;;;;;;4999617;28;20120;-77
2023/03/23 03:38:24;;;;;;;7.57;4.05;;;;;;;;;;4997758;28;20042;-78
2023/03/23 03:40:50;;;;;;;7.80;4.60;;;;;;;;;;4998103;28;20046;-78
2023/03/23 03:43:16;;;;;;;9.25;4.30;;;;;;;;;;5000731;28;20062;-78
2023/03/23 03:45:42;;;;;;;7.80;4.05;;;;;;;;;;5005490;28;20053;-78
2023/03/23 03:48:08;;;;;;;8.60;4.38;;;;;;;;;;5003730;28;20132;-78
2023/03/23 03:50:34;;;;;;;8.57;4.38;;;;;;;;;;5000010;28;20050;-78
2023/03/23 03:53:00;;;;;;;9.48;4.57;;;;;;;;;;4999837;28;20043;-78
2023/03/23 03:55:27;;;;;;;10.63;3.95;;;;;;;;;;4998551;28;20052;-78
2023/03/23 03:57:54;;;;;;;9.38;4.25;;;;;;;;;;4999244;28;20110;-79
2023/03/23 04:00:21;;;;;;;7.93;4.20;;;;;;;;;;4999726;28;20042;-78
2023/03/23 04:02:50;;;;;;;9.35;4.75;;;;;;;;;;4997605;28;20552;-78
2023/03/23 04:05:16;;;;;;;7.00;4.07;;;;;;;;;;4998809;28;20523;-78
2023/03/23 04:07:43;;;;;;;7.97;4.00;;;;;;;;;;4996308;28;20047;-77
2023/03/23 04:10:11;;;;;;;8.23;4.07;;;;;;;;;;4997502;28;20050;-78
2023/03/23 04:12:37;;;;;;;9.48;4.90;;;;;;;;;;4999357;28;20048;-78
2023/03/23 04:15:04;;;;;;;8.00;4.43;;;;;;;;;;4997230;28;20054;-78
2023/03/23 04:17:30;;;;;;;12.55;4.53;;;;;;;;;;4998066;28;20519;-79
2023/03/23 04:19:56;;;;;;;7.32;4.45;;;;;;;;;;4997890;28;20459;-77
2023/03/23 04:22:29;;;;;;;7.72;4.40;;;;;;;;;;4996247;28;20047;-77
2023/03/23 04:24:58;;;;;;;8.23;4.88;;;;;;;;;;4997788;28;20045;-77
2023/03/23 04:27:24;;;;;;;8.00;4.88;;;;;;;;;;4996371;28;20058;-78
2023/03/23 04:29:50;;;;;;;8.80;4.75;;;;;;;;;;4997504;28;20085;-77
2023/03/23 04:32:19;;;;;;;7.18;4.53;;;;;;;;;;4982046;28;20039;-77
2023/03/23 04:34:45;;;;;;;8.68;4.70;;;;;;;;;;4980386;28;20077;-78
2023/03/23 04:37:13;;;;;;;10.52;5.28;;;;;;;;;;4978670;28;20047;-78
2023/03/23 04:39:39;;;;;;;9.88;4.53;;;;;;;;;;4997401;28;20504;-77
2023/03/23 04:42:06;;;;;;;8.65;4.88;;;;;;;;;;4998011;28;20515;-77
2023/03/23 04:44:32;;;;;;;8.55;4.90;;;;;;;;;;5001486;28;20053;-77
2023/03/23 04:47:01;;;;;;;7.60;4.65;;;;;;;;;;5005445;28;20049;-79
2023/03/23 04:49:29;;;;;;;7.65;4.57;;;;;;;;;;5003819;28;20060;-79
2023/03/23 04:51:56;;;;;;;8.20;4.97;;;;;;;;;;5001668;28;20038;-78
2023/03/23 04:54:22;;;;;;;11.05;4.97;;;;;;;;;;4999512;28;20081;-78
2023/03/23 04:56:48;;;;;;;9.57;5.00;;;;;;;;;;4998511;28;20034;-78
2023/03/23 04:59:14;;;;;;;8.80;4.22;;;;;;;;;;4999001;28;20488;-78
2023/03/23 05:01:44;;;;;;;10.63;4.80;;;;;;;;;;4999692;28;20092;-77
2023/03/23 05:04:12;;;;;;;9.32;4.60;;;;;;;;;;4998550;28;20046;-78
2023/03/23 05:06:40;;;;;;;9.60;4.60;;;;;;;;;;4997801;28;20046;-77
2023/03/23 05:09:07;;;;;;;10.00;5.10;;;;;;;;;;4997906;28;20050;-78
2023/03/23 05:11:33;;;;;;;9.45;4.70;;;;;;;;;;4998506;28;20058;-78
2023/03/23 05:13:59;;;;;;;8.70;4.60;;;;;;;;;;4995705;28;20065;-77
2023/03/23 05:16:25;;;;;;;8.13;4.40;;;;;;;;;;4997930;28;20060;-78
2023/03/23 05:18:52;;;;;;;9.02;4.20;;;;;;;;;;4999280;28;20046;-78
2023/03/23 05:21:18;;;;;;;9.15;4.90;;;;;;;;;;5004215;28;20047;-78
2023/03/23 05:23:44;;;;;;;11.02;4.25;;;;;;;;;;5005222;28;20080;-79
2023/03/23 05:26:10;;;;;;;9.43;4.15;;;;;;;;;;5005117;28;20170;-78
2023/03/23 05:28:37;;;;;;;10.35;4.03;;;;;;;;;;4998370;28;20053;-79
2023/03/23 05:31:03;;;;;;;9.18;3.53;;;;;;;;;;4995744;28;20500;-78
2023/03/23 05:33:29;;;;;;;7.93;3.00;;;;;;;;;;5000491;28;20144;-77
2023/03/23 05:35:55;;;;;;;8.40;2.97;;;;;;;;;;5003536;28;20045;-79
2023/03/23 05:38:22;;;;;;;9.32;3.13;;;;;;;;;;5006638;28;20038;-79
2023/03/23 05:40:48;;;;;;;10.52;3.00;;;;;;;;;;4999672;28;20042;-79
2023/03/23 05:43:14;;;;;;;9.02;3.22;;;;;;;;;;5004900;28;20050;-78
2023/03/23 05:45:41;;;;;;;10.02;3.17;;;;;;;;;;5005739;28;20061;-78
2023/03/23 05:48:08;;;;;;;9.65;3.10;;;;;;;;;;5004835;28;20042;-78
2023/03/23 05:50:34;;;;;;;8.75;3.17;;;;;;;;;;4985291;28;20046;-78
2023/03/23 05:53:03;;;;;;;9.40;2.50;;;;;;;;;;4987334;28;20050;-79
2023/03/23 05:55:29;;;;;;;8.25;2.45;;;;;;;;;;4991587;28;20042;-78
2023/03/23 05:57:55;;;;;;;8.93;2.65;;;;;;;;;;5006632;28;20050;-78
2023/03/23 06:00:23;;;;;;;10.02;2.90;;;;;;;;;;5006102;28;20042;-79
2023/03/23 06:02:50;;;;;;;11.02;2.50;;;;;;;;;;5006864;28;20046;-79
2023/03/23 06:05:17;;;;;;;12.95;3.03;;;;;;;;;;5006721;28;20050;-78
2023/03/23 06:07:43;;;;;;;12.18;2.38;;;;;;;;;;5008043;28;20046;-79
2023/03/23 06:10:10;;;;;;;10.45;2.05;;;;;;;;;;5010898;28;20074;-77
2023/03/23 06:12:36;;;;;;;15.65;2.40;;;;;;;;;;5012462;28;20053;-78
2023/03/23 06:15:05;;;;;;;10.23;2.30;;;;;;;;;;5009801;28;20130;-80
2023/03/23 06:17:31;;;;;;;9.82;2.20;;;;;;;;;;5006050;28;20093;-78
2023/03/23 06:19:57;;;;;;;11.38;2.30;;;;;;;;;;5004561;28;20118;-79
2023/03/23 06:22:23;;;;;;;11.43;2.63;;;;;;;;;;5005112;28;20101;-78
2023/03/23 06:24:49;;;;;;;8.90;2.08;;;;;;;;;;5003774;28;20046;-79
2023/03/23 06:27:17;;;;;;;12.45;2.42;;;;;;;;;;5000605;28;20046;-79
2023/03/23 06:29:43;;;;;;;9.10;2.08;;;;;;;;;;5002528;28;20050;-79
2023/03/23 06:32:11;;;;;;;10.95;2.17;;;;;;;;;;4998236;28;20046;-77
2023/03/23 06:34:37;;;;;;;11.98;2.17;;;;;;;;;;4999070;28;20085;-80
2023/03/23 06:37:04;;;;;;;7.65;1.95;;;;;;;;;;5001010;28;20046;-79
2023/03/23 06:39:31;;;;;;;10.02;2.33;;;;;;;;;;5001568;28;20523;-79
2023/03/23 06:42:00;;;;;;;8.13;2.28;;;;;;;;;;5001786;28;20047;-78
2023/03/23 06:44:26;;;;;;;10.48;2.00;;;;;;;;;;4998617;28;20048;-79
2023/03/23 06:46:52;;;;;;;10.95;2.45;;;;;;;;;;4983986;28;20054;-79
2023/03/23 06:49:18;;;;;;;10.18;2.90;;;;;;;;;;4998829;28;20137;-79
2023/03/23 06:51:45;;;;;;;12.00;2.40;;;;;;;;;;4997421;28;20125;-78
2023/03/23 06:54:11;;;;;;;11.07;2.53;;;;;;;;;;4995278;28;20840;-79
2023/03/23 06:56:37;;;;;;;10.80;2.15;;;;;;;;;;4998534;28;20476;-78
2023/03/23 06:59:03;;;;;;;12.88;2.60;;;;;;;;;;4998695;28;20038;-78
2023/03/23 07:01:29;;;;;;;9.60;2.38;;;;;;;;;;5002616;28;20038;-79
2023/03/23 07:03:56;;;;;;;11.35;2.58;;;;;;;;;;4992276;28;20122;-78
2023/03/23 07:06:22;;;;;;;16.33;3.25;;;;;;;;;;4990128;28;20097;-78
2023/03/23 07:08:48;;;;;;;13.98;2.70;;;;;;;;;;4990853;28;20049;-79
2023/03/23 07:11:14;;;;;;;11.35;2.50;;;;;;;;;;5000047;28;20042;-79
2023/03/23 07:13:41;;;;;;;12.70;3.00;;;;;;;;;;4988014;28;20062;-79
2023/03/23 07:16:07;;;;;;;17.02;3.28;;;;;;;;;;4995472;28;20072;-78
2023/03/23 07:18:33;;;;;;;17.77;3.28;;;;;;;;;;4985721;28;20043;-78
2023/03/23 07:21:00;;;;;;;17.20;3.38;;;;;;;;;;4983695;28;20144;-79
2023/03/23 07:23:26;;;;;;;16.73;3.22;;;;;;;;;;4986576;28;20503;-78
2023/03/23 07:25:53;;;;;;;16.38;3.40;;;;;;;;;;5000733;28;20408;-78
2023/03/23 07:28:20;;;;;;;18.05;3.13;;;;;;;;;;4991242;28;20062;-78
2023/03/23 07:30:46;;;;;;;18.55;3.65;;;;;;;;;;4995454;28;20181;-79
2023/03/23 07:33:12;;;;;;;15.90;2.70;;;;;;;;;;4988119;28;20043;-78
2023/03/23 07:35:38;;;;;;;18.02;3.00;;;;;;;;;;4994161;28;20049;-78
2023/03/23 07:38:06;;;;;;;19.15;3.20;;;;;;;;;;5007505;28;20048;-78
2023/03/23 07:40:35;;;;;;;13.40;3.38;;;;;;;;;;4992268;28;20462;-79
2023/03/23 07:43:01;;;;;;;17.13;3.58;;;;;;;;;;4994608;28;20081;-78
2023/03/23 07:45:28;;;;;;;12.38;2.88;;;;;;;;;;4994444;28;20070;-79
2023/03/23 07:47:55;;;;;;;17.98;3.58;;;;;;;;;;4998438;28;20042;-78
2023/03/23 07:50:23;;;;;;;17.15;3.67;;;;;;;;;;4997211;28;20508;-78
2023/03/23 07:52:50;;;;;;;17.25;3.08;;;;;;;;;;4996134;28;20065;-78
2023/03/23 07:55:19;;;;;;;19.08;3.55;;;;;;;;;;4995630;28;20062;-78
2023/03/23 07:57:46;;;;;;;13.00;2.92;;;;;;;;;;4992463;28;20045;-78
2023/03/23 08:00:18;;;;;;;21.60;4.03;;;;;;;;;;4997169;28;20339;-79
2023/03/23 08:02:45;;;;;;;12.52;3.42;;;;;;;;;;4998134;28;20052;-78
2023/03/23 08:05:13;;;;;;;14.88;3.55;;;;;;;;;;4991580;28;20202;-78
2023/03/23 08:07:40;;;;;;;17.05;3.88;;;;;;;;;;4996177;28;20061;-77
2023/03/23 08:10:09;;;;;;;16.70;3.50;;;;;;;;;;4995477;28;20067;-78
2023/03/23 08:12:36;;;;;;;13.00;3.10;;;;;;;;;;4996656;28;20058;-78
2023/03/23 08:15:02;;;;;;;16.17;3.58;;;;;;;;;;4992956;28;20481;-78
2023/03/23 08:17:28;;;;;;;16.75;3.38;;;;;;;;;;4990516;28;20097;-77
2023/03/23 08:19:54;;;;;;;19.33;3.80;;;;;;;;;;4995601;28;20042;-78
2023/03/23 08:22:20;;;;;;;14.85;3.22;;;;;;;;;;4996945;28;20049;-78
2023/03/23 08:24:47;;;;;;;12.48;2.75;;;;;;;;;;4994966;28;20053;-77
2023/03/23 08:27:13;;;;;;;15.27;3.42;;;;;;;;;;4996932;28;20154;-79
2023/03/23 08:29:40;;;;;;;14.93;3.40;;;;;;;;;;4995055;28;20062;-77
2023/03/23 08:32:06;;;;;;;14.15;3.38;;;;;;;;;;4987012;28;20462;-78
2023/03/23 08:34:32;;;;;;;17.67;3.55;;;;;;;;;;4989033;28;20408;-77
2023/03/23 08:36:58;;;;;;;14.88;3.67;;;;;;;;;;5003401;28;20045;-78
2023/03/23 08:39:25;;;;;;;15.25;3.38;;;;;;;;;;5004982;28;20034;-77
2023/03/23 08:41:51;;;;;;;14.05;3.38;;;;;;;;;;4994864;28;20052;-78
2023/03/23 08:44:17;;;;;;;14.15;3.78;;;;;;;;;;4997630;28;20069;-78
2023/03/23 08:46:43;;;;;;;16.00;3.00;;;;;;;;;;4995974;28;20103;-78
2023/03/23 08:49:09;;;;;;;15.20;3.40;;;;;;;;;;4994926;28;20042;-78
2023/03/23 08:51:35;;;;;;;16.55;3.58;;;;;;;;;;4999511;28;20038;-79
2023/03/23 08:54:02;;;;;;;17.13;3.08;;;;;;;;;;4999187;28;20078;-79
2023/03/23 08:56:28;;;;;;;15.98;3.60;;;;;;;;;;4992109;28;20400;-78
2023/03/23 08:58:54;;;;;;;20.45;3.95;;;;;;;;;;4997059;28;20053;-78
2023/03/23 09:01:20;;;;;;;19.40;3.90;;;;;;;;;;5017444;28;20058;-78
2023/03/23 09:03:46;;;;;;;16.52;3.80;;;;;;;;;;4997200;28;20050;-77
2023/03/23 09:06:12;;;;;;;19.25;4.45;;;;;;;;;;4992318;28;20070;-78
2023/03/23 09:08:39;;;;;;;18.63;3.67;;;;;;;;;;4995219;28;20484;-77
2023/03/23 09:11:09;;;;;;;17.13;3.85;;;;;;;;;;4991829;28;20035;-77
2023/03/23 09:13:36;;;;;;;22.65;4.05;;;;;;;;;;4995776;28;20062;-77
2023/03/23 09:16:03;;;;;;;21.90;4.32;;;;;;;;;;4998110;28;20042;-77
2023/03/23 09:18:32;;;;;;;22.98;4.28;;;;;;;;;;4994950;28;20100;-77
2023/03/23 09:20:59;;;;;;;20.50;4.38;;;;;;;;;;5001883;28;20054;-77
2023/03/23 09:23:25;;;;;;;19.13;4.50;;;;;;;;;;4997647;28;20038;-77
2023/03/23 09:25:51;;;;;;;19.52;4.10;;;;;;;;;;4995922;28;20054;-77
2023/03/23 09:28:17;;;;;;;16.70;3.72;;;;;;;;;;4995060;28;20054;-78
2023/03/23 09:30:45;;;;;;;18.38;4.07;;;;;;;;;;4995911;28;20415;-78
2023/03/23 09:33:11;;;;;;;20.15;4.75;;;;;;;;;;4995437;28;20073;-78
2023/03/23 09:35:38;;;;;;;19.70;4.18;;;;;;;;;;4995831;28;20050;-77
2023/03/23 09:38:04;;;;;;;19.17;4.05;;;;;;;;;;4996671;28;20492;-78
2023/03/23 09:40:46;;;;;;;23.77;4.32;;;;;;;;;;4984230;28;20054;-77
2023/03/23 09:43:19;;;;;;;18.95;4.13;;;;;;;;;;4994592;28;20042;-79
2023/03/23 09:45:56;;;;;;;16.92;4.03;;;;;;;;;;4989130;28;20046;-77
2023/03/23 09:48:28;;;;;;;19.45;4.55;;;;;;;;;;4996922;28;20050;-79
2023/03/23 09:51:00;;;;;;;15.23;3.50;;;;;;;;;;4996192;28;20038;-78
2023/03/23 09:53:34;;;;;;;19.10;4.65;;;;;;;;;;4995007;28;20108;-78
2023/03/23 09:56:01;;;;;;;20.25;3.83;;;;;;;;;;4978818;28;20396;-77
2023/03/23 09:58:31;;;;;;;16.17;4.05;;;;;;;;;;4994516;28;20050;-78
2023/03/23 10:01:02;;;;;;;20.10;4.30;;;;;;;;;;4989204;28;20046;-77
2023/03/23 10:03:33;;;;;;;15.82;4.25;;;;;;;;;;4994602;28;20046;-77
2023/03/23 10:06:00;;;;;;;17.05;4.20;;;;;;;;;;4996433;28;20046;-77
2023/03/23 10:08:29;;;;;;;17.63;3.70;;;;;;;;;;4999498;28;20066;-78
2023/03/23 10:11:04;;;;;;;19.13;4.65;;;;;;;;;;4994817;28;20073;-78
2023/03/23 10:13:43;;;;;;;18.55;4.30;;;;;;;;;;4996207;28;20054;-78
2023/03/23 10:16:11;;;;;;;16.80;3.80;;;;;;;;;;4998029;28;20096;-77
2023/03/23 10:18:39;;;;;;;17.58;3.85;;;;;;;;;;4997113;28;20050;-78
2023/03/23 10:21:06;;;;;;;17.60;3.60;;;;;;;;;;4997861;28;20047;-78
2023/03/23 10:23:50;;;;;;;15.73;3.97;;;;;;;;;;4979606;28;20043;-79
2023/03/23 10:26:23;;;;;;;12.00;3.40;;;;;;;;;;4983579;28;20396;-78
2023/03/23 10:28:52;;;;;;;17.25;3.92;;;;;;;;;;4997976;28;20057;-78
2023/03/23 10:31:33;;;;;;;18.05;3.58;;;;;;;;;;4996421;28;20133;-78
2023/03/23 10:34:02;;;;;;;16.92;3.53;;;;;;;;;;4996781;28;20052;-78
2023/03/23 10:36:31;;;;;;;18.13;3.33;;;;;;;;;;4991578;28;20039;-78
2023/03/23 10:39:00;;;;;;;17.42;3.67;;;;;;;;;;4986228;28;20054;-78
2023/03/23 10:41:26;;;;;;;20.00;3.65;;;;;;;;;;4990322;28;20451;-78
2023/03/23 10:43:54;;;;;;;14.85;3.83;;;;;;;;;;4995022;28;20070;-77
2023/03/23 10:46:23;;;;;;;25.67;4.70;;;;;;;;;;4994091;28;20078;-79
2023/03/23 10:48:50;;;;;;;19.85;3.72;;;;;;;;;;4999679;28;20049;-78
2023/03/23 10:51:18;;;;;;;21.13;4.38;;;;;;;;;;4998302;28;20146;-79
2023/03/23 10:53:47;;;;;;;21.27;4.18;;;;;;;;;;4997227;28;20046;-79
2023/03/23 10:56:32;;;;;;;20.13;3.75;;;;;;;;;;5000260;28;20042;-79
2023/03/23 10:58:58;;;;;;;17.33;4.30;;;;;;;;;;4982624;28;20051;-77
2023/03/23 11:01:32;;;;;;;20.00;4.00;;;;;;;;;;4990148;28;20077;-78
2023/03/23 11:04:00;;;;;;;16.73;3.65;;;;;;;;;;5007355;28;20072;-78
2023/03/23 11:06:39;;;;;;;14.27;3.50;;;;;;;;;;4998867;28;20121;-77
2023/03/23 11:09:13;;;;;;;14.35;3.30;;;;;;;;;;4999147;28;20050;-78
2023/03/23 11:11:43;;;;;;;15.02;3.08;;;;;;;;;;4998697;28;20120;-78
2023/03/23 11:14:24;;;;;;;10.85;2.67;;;;;;;;;;5000060;28;20167;-79
2023/03/23 11:16:52;;;;;;;13.75;2.78;;;;;;;;;;5002501;28;20053;-77
2023/03/23 11:19:32;;;;;;;13.13;3.45;;;;;;;;;;5004528;28;20091;-78
2023/03/23 11:22:07;;;;;;;15.15;3.20;;;;;;;;;;5005317;28;20143;-78
2023/03/23 11:24:35;;;;;;;12.63;2.95;;;;;;;;;;5006229;28;20042;-80
2023/03/23 11:27:06;;;;;;;10.70;2.80;;;;;;;;;;5005774;28;20051;-79
2023/03/23 11:29:33;;;;;;;13.25;2.70;;;;;;;;;;5006100;28;20094;-81
2023/03/23 11:31:59;;;;;;;12.52;2.97;;;;;;;;;;5006014;28;20050;-79
2023/03/23 11:34:36;;;;;;;12.45;3.28;;;;;;;;;;5007619;28;20105;-83
2023/03/23 11:37:04;;;;;;;11.15;2.85;;;;;;;;;;5010277;28;20078;-80
2023/03/23 11:39:30;;;;;;;13.45;2.60;;;;;;;;;;5009055;28;20046;-78
2023/03/23 11:41:58;;;;;;;12.35;2.60;;;;;;;;;;5000635;28;20057;-81
2023/03/23 11:44:25;;;;;;;13.48;2.72;;;;;;;;;;5003175;28;20046;-78
2023/03/23 11:47:06;;;;;;;14.35;2.63;;;;;;;;;;5000443;28;20042;-78
2023/03/23 11:49:33;;;;;;;;;;;;;;;;;;4998783;28;20054;-76
2023/03/23 11:52:18;;;;;;;11.82;2.47;;;;;;;;;;4998622;28;19921;-78
2023/03/23 11:54:48;;;;;;;13.05;3.10;;;;;;;;;;4997211;28;20038;-78
2023/03/23 11:57:15;;;;;;;15.40;2.40;;;;;;;;;;4996682;28;20054;-77
2023/03/23 11:59:42;;;;;;;10.80;2.45;;;;;;;;;;4991948;28;20073;-76
2023/03/23 12:02:08;;;;;;;12.18;2.65;;;;;;;;;;4995254;28;20050;-77
2023/03/23 12:04:35;;;;;;;12.68;2.88;;;;;;;;;;4998387;28;20051;-77
2023/03/23 12:07:20;;;;;;;15.35;2.05;;;;;;;;;;4998311;28;20126;-77
2023/03/23 12:09:46;;;;;;;11.48;2.50;;;;;;;;;;4996185;28;20049;-77
2023/03/23 12:12:30;;;;;;;11.20;2.45;;;;;;;;;;4999330;28;20054;-77
2023/03/23 12:15:03;;;;;;;11.73;2.47;;;;;;;;;;5000738;28;20051;-77
2023/03/23 12:17:48;;;;;;;12.63;2.53;;;;;;;;;;4994378;28;20038;-80
2023/03/23 12:20:40;;;;;;;11.45;2.40;;;;;;;;;;5003174;28;20081;-80
2023/03/23 12:23:19;;;;;;;10.63;2.28;;;;;;;;;;4999298;28;20061;-77
2023/03/23 12:25:45;;;;;;;11.68;2.22;;;;;;;;;;4999823;28;20042;-78
2023/03/23 12:28:15;;;;;;;11.32;2.25;;;;;;;;;;5002221;28;20047;-77
2023/03/23 12:31:07;;;;;;;13.13;2.75;;;;;;;;;;5008827;28;20106;-78
2023/03/23 12:33:50;;;;;;;11.90;2.50;;;;;;;;;;5011889;28;20050;-78
2023/03/23 12:36:28;;;;;;;11.48;2.35;;;;;;;;;;5008195;28;20046;-77
2023/03/23 12:39:00;;;;;;;14.70;2.80;;;;;;;;;;4999822;28;20042;-77
2023/03/23 12:41:33;;;;;;;12.73;2.78;;;;;;;;;;4994846;28;20038;-77
2023/03/23 12:44:11;;;;;;;14.38;2.45;;;;;;;;;;4993235;28;20050;-77
2023/03/23 12:46:40;;;;;;;11.68;2.50;;;;;;;;;;4996332;28;20448;-78
2023/03/23 12:49:11;;;;;;;11.93;2.75;;;;;;;;;;4987256;28;20055;-77
2023/03/23 12:51:37;;;;;;;;;;;;;;;;;;4990363;28;20065;-77
2023/03/23 12:54:13;;;;;;;12.57;2.78;;;;;;;;;;5001169;28;20021;-77
2023/03/23 12:56:48;;;;;;;13.23;2.88;;;;;;;;;;5000071;28;20050;-77
2023/03/23 12:59:23;;;;;;;11.10;2.95;;;;;;;;;;4994728;28;20046;-77
2023/03/23 13:01:53;;;;;;;17.42;2.95;;;;;;;;;;5002178;28;20053;-79
2023/03/23 13:04:21;;;;;;;15.20;3.60;;;;;;;;;;4992979;28;20047;-78
2023/03/23 13:06:49;;;;;;;13.63;3.00;;;;;;;;;;5002101;28;20069;-78
2023/03/23 13:09:27;;;;;;;11.02;2.63;;;;;;;;;;4999791;28;20444;-76
2023/03/23 13:11:54;;;;;;;16.52;2.80;;;;;;;;;;4994526;28;20060;-75
2023/03/23 13:14:20;;;;;;;17.45;2.60;;;;;;;;;;4989915;28;20066;-75
2023/03/23 13:17:13;;;;;;;19.50;3.13;;;;;;;;;;4997022;28;20554;-77
2023/03/23 13:19:48;;;;;;;16.73;3.13;;;;;;;;;;4994378;28;20051;-77
2023/03/23 13:22:19;;;;;;;15.40;2.80;;;;;;;;;;5003016;28;20049;-78
2023/03/23 13:24:45;;;;;;;;;;;;;;;;;;5003214;28;20377;-78
2023/03/23 13:27:14;;;;;;;14.55;2.75;;;;;;;;;;4998145;28;20012;-77
2023/03/23 13:29:45;;;;;;;15.20;3.15;;;;;;;;;;4997922;28;20057;-77
2023/03/23 13:32:18;;;;;;;10.23;2.50;;;;;;;;;;4985503;28;20424;-77
2023/03/23 13:34:46;;;;;;;15.20;3.33;;;;;;;;;;4994630;28;20050;-78
2023/03/23 13:37:21;;;;;;;13.55;2.83;;;;;;;;;;4997964;28;20089;-77
2023/03/23 13:39:55;;;;;;;20.15;3.83;;;;;;;;;;4994537;28;20053;-77
2023/03/23 13:42:24;;;;;;;13.32;3.05;;;;;;;;;;4989805;28;20098;-76
2023/03/23 13:44:51;;;;;;;11.25;2.63;;;;;;;;;;4998306;28;20098;-78
2023/03/23 13:47:23;;;;;;;12.52;3.03;;;;;;;;;;5000479;28;20069;-76
2023/03/23 13:49:56;;;;;;;14.18;3.05;;;;;;;;;;5001835;28;20043;-78
2023/03/23 13:52:37;;;;;;;13.50;2.72;;;;;;;;;;5006086;28;20104;-79
2023/03/23 13:55:16;;;;;;;11.93;2.17;;;;;;;;;;4998572;28;20054;-77
2023/03/23 13:57:57;;;;;;;9.32;2.00;;;;;;;;;;5001273;28;20054;-76
2023/03/23 14:00:23;;;;;;;;;;;;;;;;;;5001911;28;20045;-78
2023/03/23 14:02:50;;;;;;;12.18;2.33;;;;;;;;;;5005438;28;19945;-78
2023/03/23 14:05:19;;;;;;;13.00;2.40;;;;;;;;;;4998309;28;20061;-77
2023/03/23 14:07:54;;;;;;;10.02;2.30;;;;;;;;;;4996726;28;20096;-77
2023/03/23 14:10:21;;;;;;;15.63;2.88;;;;;;;;;;4997891;28;20085;-75
2023/03/23 14:12:47;;;;;;;10.45;2.70;;;;;;;;;;4996216;28;20101;-75
2023/03/23 14:15:14;;;;;;;12.43;2.53;;;;;;;;;;4990120;28;20082;-76
2023/03/23 14:17:44;;;;;;;13.80;2.67;;;;;;;;;;4997269;28;20065;-78
2023/03/23 14:20:20;;;;;;;11.20;2.17;;;;;;;;;;4985327;28;20039;-77
2023/03/23 14:22:46;;;;;;;14.15;2.60;;;;;;;;;;4988367;28;20050;-76
2023/03/23 14:25:14;;;;;;;15.60;3.15;;;;;;;;;;5003080;28;20043;-77
2023/03/23 14:27:41;;;;;;;15.23;3.20;;;;;;;;;;4979629;28;20112;-75
2023/03/23 14:30:09;;;;;;;12.68;2.58;;;;;;;;;;4997196;28;20050;-76
2023/03/23 14:32:35;;;;;;;13.10;2.78;;;;;;;;;;5000237;28;20054;-79
2023/03/23 14:35:07;;;;;;;12.65;2.60;;;;;;;;;;5002486;28;20046;-77
2023/03/23 14:37:35;;;;;;;10.63;2.47;;;;;;;;;;5001161;28;20077;-77
2023/03/23 14:40:04;;;;;;;14.05;3.03;;;;;;;;;;5005132;28;20100;-78
2023/03/23 14:42:32;;;;;;;12.25;2.35;;;;;;;;;;5001494;28;20046;-77